Time;durP1;ratioP1;P1;durP2;ratioP2;P2;SDS_P1;SDS_P2;PMS_P1;PMS_P2;Temp;Humidity;BMP_temperature;BMP_pressure;BME280_temperature;BME280_humidity;BME280_pressure;Samples;Min_cycle;Max_cycle;Signal;HPM_P1;HPM_P2
2022/11/07 00:01:10;;;;;;;4.63;4.10;;;7.50;99.90;;;;;;5078867;28;20322;-82
2022/11/07 00:03:36;;;;;;;5.33;4.83;;;7.50;99.90;;;;;;5078953;28;20209;-83
2022/11/07 00:06:03;;;;;;;7.23;5.00;;;7.50;99.90;;;;;;5079170;28;20298;-83
2022/11/07 00:08:31;;;;;;;5.13;4.57;;;7.50;99.90;;;;;;5078981;28;20204;-83
2022/11/07 00:10:59;;;;;;;5.13;4.50;;;7.60;99.90;;;;;;5078946;28;20198;-83
2022/11/07 00:13:27;;;;;;;6.10;4.60;;;7.70;99.90;;;;;;5078967;28;20197;-83
2022/11/07 00:15:54;;;;;;;6.03;4.60;;;7.70;99.90;;;;;;5078897;28;20254;-83
2022/11/07 00:18:20;;;;;;;5.77;4.63;;;7.90;99.90;;;;;;5079020;28;20582;-83
2022/11/07 00:20:47;;;;;;;6.33;4.40;;;7.90;99.90;;;;;;5079159;28;20231;-83
2022/11/07 00:23:13;;;;;;;5.03;4.53;;;8.00;99.90;;;;;;5079161;28;20651;-84
2022/11/07 00:25:40;;;;;;;5.13;4.00;;;8.00;99.90;;;;;;5078923;28;20243;-84
2022/11/07 00:28:08;;;;;;;4.97;3.90;;;8.00;99.90;;;;;;5078784;28;20204;-84
2022/11/07 00:30:35;;;;;;;6.10;4.87;;;7.90;99.90;;;;;;5077559;28;20227;-83
2022/11/07 00:33:02;;;;;;;4.20;3.80;;;7.90;99.90;;;;;;5075088;28;20668;-82
2022/11/07 00:35:29;;;;;;;4.60;4.10;;;7.80;99.90;;;;;;5075689;28;20288;-83
2022/11/07 00:37:56;;;;;;;5.77;4.50;;;7.70;99.90;;;;;;5075457;28;20230;-83
2022/11/07 00:40:23;;;;;;;5.03;4.17;;;7.70;99.90;;;;;;5075459;28;20197;-83
2022/11/07 00:42:49;;;;;;;5.00;4.53;;;7.70;99.90;;;;;;5075340;28;20193;-84
2022/11/07 00:45:17;;;;;;;4.93;4.40;;;7.50;99.90;;;;;;5075600;28;20251;-83
2022/11/07 00:47:44;;;;;;;5.83;4.60;;;7.50;99.90;;;;;;5075410;28;20674;-83
2022/11/07 00:50:11;;;;;;;5.03;4.53;;;7.50;99.90;;;;;;5075465;28;20197;-83
2022/11/07 00:52:37;;;;;;;5.93;5.03;;;7.40;99.90;;;;;;5075354;28;20255;-84
2022/11/07 00:55:05;;;;;;;5.10;4.60;;;7.40;99.90;;;;;;5075090;28;20231;-84
2022/11/07 00:57:31;;;;;;;6.23;5.63;;;7.30;99.90;;;;;;5074965;28;20757;-83
2022/11/07 00:59:58;;;;;;;5.70;5.10;;;7.40;99.90;;;;;;5075271;28;20201;-82
2022/11/07 01:02:26;;;;;;;6.17;4.93;;;7.40;99.90;;;;;;5074991;28;20583;-84
2022/11/07 01:05:10;;;;;;;5.47;4.97;;;7.40;99.90;;;;;;5074778;28;20761;-83
2022/11/07 01:07:36;;;;;;;5.00;4.50;;;7.40;99.90;;;;;;5075038;28;20215;-84
2022/11/07 01:10:04;;;;;;;5.43;4.60;;;7.50;99.90;;;;;;5074884;28;20197;-85
2022/11/07 01:12:32;;;;;;;5.40;4.63;;;7.50;99.90;;;;;;5074755;28;20656;-85
2022/11/07 01:14:59;;;;;;;6.27;4.90;;;7.50;99.90;;;;;;5074974;28;20726;-84
2022/11/07 01:17:27;;;;;;;5.00;4.43;;;7.50;99.90;;;;;;5074805;28;20241;-84
2022/11/07 01:19:54;;;;;;;5.57;4.03;;;7.50;99.90;;;;;;5074674;28;20194;-83
2022/11/07 01:22:20;;;;;;;4.13;3.60;;;7.60;99.90;;;;;;5074599;28;20208;-84
2022/11/07 01:24:47;;;;;;;5.43;4.20;;;7.60;99.90;;;;;;5074896;28;20201;-84
2022/11/07 01:27:14;;;;;;;6.23;3.80;;;7.60;99.90;;;;;;5074715;28;20201;-85
2022/11/07 01:29:40;;;;;;;3.80;3.40;;;7.70;99.90;;;;;;5074452;28;20652;-83
2022/11/07 01:32:07;;;;;;;4.90;3.23;;;7.70;99.90;;;;;;5074471;28;20651;-83
2022/11/07 01:34:35;;;;;;;3.63;3.17;;;7.80;99.90;;;;;;5074423;28;20194;-84
2022/11/07 01:37:02;;;;;;;4.80;3.50;;;7.90;99.90;;;;;;5074264;28;20221;-84
2022/11/07 01:39:28;;;;;;;4.47;3.20;;;8.00;99.90;;;;;;5074568;28;20268;-84
2022/11/07 01:41:55;;;;;;;3.70;2.83;;;8.00;99.90;;;;;;5076983;28;20238;-84
2022/11/07 01:44:55;;;;;;;3.30;2.97;;;8.00;99.90;;;;;;5074344;28;20268;-83
2022/11/07 01:47:23;;;;;;;2.93;2.60;;;8.00;99.90;;;;;;5074223;28;20212;-84
2022/11/07 01:49:52;;;;;;;3.77;3.27;;;8.00;99.90;;;;;;5074383;28;20207;-81
2022/11/07 01:52:23;;;;;;;3.00;2.63;;;8.10;99.90;;;;;;5074323;28;20253;-82
2022/11/07 01:54:57;;;;;;;3.77;2.67;;;8.10;99.90;;;;;;5074121;28;20201;-84
2022/11/07 01:57:29;;;;;;;4.57;2.57;;;8.20;99.90;;;;;;5074110;28;20224;-84
2022/11/07 01:59:58;;;;;;;2.70;2.50;;;8.30;99.90;;;;;;5074059;28;20197;-84
2022/11/07 02:02:27;;;;;;;3.23;2.70;;;8.30;99.90;;;;;;5074031;28;20266;-84
2022/11/07 02:04:57;;;;;;;3.63;3.17;;;8.20;99.90;;;;;;5073637;28;20624;-83
2022/11/07 02:07:24;;;;;;;2.77;2.53;;;8.30;99.90;;;;;;5074159;28;20193;-82
2022/11/07 02:09:53;;;;;;;3.63;2.70;;;8.20;99.90;;;;;;5073413;28;20607;-82
2022/11/07 02:12:21;;;;;;;2.77;2.50;;;8.20;99.90;;;;;;5073644;28;20205;-81
2022/11/07 02:14:48;;;;;;;3.03;2.50;;;8.20;99.90;;;;;;5073652;28;20529;-82
2022/11/07 02:17:16;;;;;;;2.93;2.47;;;8.30;99.90;;;;;;5073659;28;20624;-82
2022/11/07 02:19:45;;;;;;;2.70;2.50;;;8.30;99.90;;;;;;5073535;28;20253;-82
2022/11/07 02:22:20;;;;;;;4.13;2.83;;;8.40;99.90;;;;;;5073534;28;20227;-81
2022/11/07 02:24:52;;;;;;;3.37;2.67;;;8.40;99.90;;;;;;5073536;28;20200;-81
2022/11/07 02:27:21;;;;;;;2.90;2.40;;;8.40;99.90;;;;;;5073561;28;20212;-82
2022/11/07 02:29:53;;;;;;;7.30;2.50;;;8.40;99.90;;;;;;5073378;28;20242;-81
2022/11/07 02:32:19;;;;;;;3.50;2.70;;;8.40;99.90;;;;;;5073284;28;20258;-83
2022/11/07 02:34:55;;;;;;;2.97;2.70;;;8.40;99.90;;;;;;5073264;28;20209;-82
2022/11/07 02:37:26;;;;;;;4.00;2.57;;;8.40;99.90;;;;;;5073184;28;20266;-82
2022/11/07 02:39:54;;;;;;;2.90;2.57;;;8.40;99.90;;;;;;5073453;28;20234;-81
2022/11/07 02:42:22;;;;;;;2.73;2.53;;;8.50;99.90;;;;;;5073273;28;20201;-81
2022/11/07 02:44:48;;;;;;;5.47;2.60;;;8.50;99.90;;;;;;5073238;28;20254;-82
2022/11/07 02:47:15;;;;;;;3.10;2.80;;;8.50;99.90;;;;;;5073134;28;20251;-82
2022/11/07 02:49:42;;;;;;;2.77;2.27;;;8.60;99.90;;;;;;5072875;28;20560;-82
2022/11/07 02:52:09;;;;;;;2.83;2.53;;;8.60;99.90;;;;;;5072844;28;20201;-82
2022/11/07 02:54:35;;;;;;;2.50;2.30;;;8.60;99.90;;;;;;5072584;28;20201;-82
2022/11/07 02:57:04;;;;;;;2.37;2.17;;;8.60;99.90;;;;;;5072879;28;20197;-80
2022/11/07 02:59:30;;;;;;;4.17;2.30;;;8.70;99.90;;;;;;5072769;28;20678;-82
2022/11/07 03:01:57;;;;;;;2.90;2.53;;;8.70;99.90;;;;;;5073020;28;20235;-82
2022/11/07 03:04:23;;;;;;;2.87;2.40;;;8.70;99.90;;;;;;5072746;28;20255;-79
2022/11/07 03:06:50;;;;;;;3.30;2.37;;;8.60;99.90;;;;;;5072749;28;20241;-81
2022/11/07 03:09:17;;;;;;;3.20;2.33;;;8.60;99.90;;;;;;5073173;28;20201;-80
2022/11/07 03:11:44;;;;;;;2.80;2.50;;;8.60;99.90;;;;;;5072908;28;20205;-80
2022/11/07 03:14:12;;;;;;;2.83;2.30;;;8.60;99.90;;;;;;5072913;28;20246;-81
2022/11/07 03:16:38;;;;;;;3.10;2.40;;;8.60;99.90;;;;;;5072741;28;20201;-82
2022/11/07 03:19:05;;;;;;;3.67;2.63;;;8.60;99.90;;;;;;5072591;28;20768;-82
2022/11/07 03:21:31;;;;;;;3.20;2.30;;;8.60;99.90;;;;;;5072882;28;20254;-82
2022/11/07 03:23:58;;;;;;;2.83;2.57;;;8.50;99.90;;;;;;5072798;28;20247;-80
2022/11/07 03:26:25;;;;;;;2.80;2.50;;;8.50;99.90;;;;;;5072478;28;20655;-81
2022/11/07 03:28:52;;;;;;;3.27;2.63;;;8.60;99.90;;;;;;5072940;28;20270;-81
2022/11/07 03:31:19;;;;;;;3.57;2.80;;;8.60;99.90;;;;;;5072613;28;20193;-80
2022/11/07 03:33:46;;;;;;;3.47;2.53;;;8.50;99.90;;;;;;5072406;28;20201;-80
2022/11/07 03:36:13;;;;;;;3.37;2.97;;;8.50;99.90;;;;;;5072604;28;20640;-81
2022/11/07 03:38:39;;;;;;;2.57;2.30;;;8.50;99.90;;;;;;5072598;28;20229;-80
2022/11/07 03:41:06;;;;;;;3.03;2.73;;;8.50;99.90;;;;;;5072653;28;20254;-81
2022/11/07 03:43:33;;;;;;;2.87;2.63;;;8.60;99.90;;;;;;5072442;28;20659;-81
2022/11/07 03:45:59;;;;;;;3.23;2.73;;;8.50;99.90;;;;;;5072427;28;20197;-81
2022/11/07 03:48:27;;;;;;;3.43;3.07;;;8.40;99.90;;;;;;5072335;28;20618;-81
2022/11/07 03:50:54;;;;;;;3.97;3.07;;;8.30;99.90;;;;;;5072540;28;20201;-81
2022/11/07 03:53:21;;;;;;;3.10;2.80;;;8.10;99.90;;;;;;5072533;28;20283;-80
2022/11/07 03:55:47;;;;;;;3.10;2.80;;;8.00;99.90;;;;;;5072315;28;20800;-81
2022/11/07 03:58:14;;;;;;;3.37;3.00;;;8.10;99.90;;;;;;5072315;28;20687;-81
2022/11/07 04:00:41;;;;;;;3.07;2.73;;;8.10;99.90;;;;;;5072147;28;20201;-81
2022/11/07 04:03:07;;;;;;;3.83;3.00;;;8.00;99.90;;;;;;5072210;28;20648;-80
2022/11/07 04:05:35;;;;;;;3.27;2.97;;;7.90;99.90;;;;;;5072079;28;20240;-81
2022/11/07 04:08:03;;;;;;;3.13;2.77;;;7.90;99.90;;;;;;5075896;28;20201;-81
2022/11/07 04:10:30;;;;;;;3.23;2.93;;;7.80;99.90;;;;;;5076266;28;20206;-81
2022/11/07 04:18:23;;;;;;;3.83;2.90;;;7.60;99.90;;;;;;5052820;28;20227;-81
2022/11/07 04:20:51;;;;;;;3.57;3.00;;;7.50;99.90;;;;;;5075599;28;20591;-81
2022/11/07 04:23:18;;;;;;;3.87;3.00;;;7.60;99.90;;;;;;5075816;28;20730;-80
2022/11/07 04:28:28;;;;;;;3.57;3.17;;;7.40;99.90;;;;;;5076042;28;20223;-81
2022/11/07 04:30:55;;;;;;;4.73;3.10;;;7.50;99.90;;;;;;5075722;28;20234;-80
2022/11/07 04:33:22;;;;;;;3.63;3.30;;;7.50;99.90;;;;;;5075580;28;20199;-82
2022/11/07 04:35:48;;;;;;;4.37;3.37;;;7.30;99.90;;;;;;5075657;28;20246;-80
2022/11/07 04:38:16;;;;;;;5.73;2.90;;;7.20;99.90;;;;;;5075399;28;20270;-80
2022/11/07 04:40:43;;;;;;;3.87;3.47;;;7.10;99.90;;;;;;5075320;28;20598;-81
2022/11/07 04:43:10;;;;;;;4.03;3.60;;;7.10;99.90;;;;;;5075281;28;20652;-80
2022/11/07 04:45:37;;;;;;;4.00;3.60;;;7.10;99.90;;;;;;5075605;28;20256;-81
2022/11/07 04:48:04;;;;;;;4.33;3.30;;;7.10;99.90;;;;;;5075202;28;20201;-81
2022/11/07 04:50:31;;;;;;;4.47;4.00;;;7.00;99.90;;;;;;5075311;28;20197;-81
2022/11/07 04:52:57;;;;;;;4.20;3.73;;;7.00;99.90;;;;;;5075271;28;20193;-81
2022/11/07 04:55:29;;;;;;;4.43;3.80;;;7.00;99.90;;;;;;5075275;28;20242;-80
2022/11/07 04:57:56;;;;;;;3.90;3.50;;;7.00;99.90;;;;;;5075092;28;20226;-83
2022/11/07 05:00:23;;;;;;;3.90;3.50;;;7.10;99.90;;;;;;5075159;28;20200;-81
2022/11/07 05:02:50;;;;;;;4.77;4.00;;;7.00;99.90;;;;;;5075005;28;20243;-82
2022/11/07 05:05:18;;;;;;;6.30;4.77;;;7.00;99.90;;;;;;5075039;28;20270;-82
2022/11/07 05:07:46;;;;;;;6.80;5.20;;;7.00;99.90;;;;;;5075079;28;20203;-82
2022/11/07 05:10:19;;;;;;;9.40;4.73;;;7.00;99.90;;;;;;5074942;28;20205;-80
2022/11/07 05:12:47;;;;;;;5.83;4.30;;;7.00;99.90;;;;;;5074916;28;20223;-81
2022/11/07 05:15:14;;;;;;;6.73;4.33;;;7.00;99.90;;;;;;5074848;28;20205;-81
2022/11/07 05:17:41;;;;;;;6.90;4.17;;;6.80;99.90;;;;;;5074242;28;20254;-81
2022/11/07 05:20:20;;;;;;;6.70;4.00;;;6.80;99.90;;;;;;5074617;28;20247;-82
2022/11/07 05:25:31;;;;;;;5.60;4.13;;;6.70;99.90;;;;;;5074952;28;20201;-81
2022/11/07 05:28:00;;;;;;;7.23;4.13;;;6.70;99.90;;;;;;5075040;28;20201;-82
2022/11/07 05:30:27;;;;;;;5.63;4.37;;;6.70;99.90;;;;;;5074518;28;20201;-80
2022/11/07 05:32:53;;;;;;;8.70;4.73;;;6.80;99.90;;;;;;5074609;28;20197;-82
2022/11/07 05:35:20;;;;;;;5.23;4.73;;;6.90;99.90;;;;;;5074669;28;20197;-82
2022/11/07 05:37:47;;;;;;;6.67;5.37;;;6.90;99.90;;;;;;5074334;28;20274;-82
2022/11/07 05:40:14;;;;;;;8.57;6.20;;;7.00;99.90;;;;;;5084396;28;20663;-81
2022/11/07 05:42:41;;;;;;;7.33;5.60;;;7.00;99.90;;;;;;5094457;28;20226;-81
2022/11/07 05:45:10;;;;;;;5.90;5.07;;;7.00;99.90;;;;;;5094488;28;20234;-81
2022/11/07 05:47:37;;;;;;;5.77;4.87;;;7.00;99.90;;;;;;5094379;28;20197;-81
2022/11/07 05:50:03;;;;;;;7.47;4.40;;;7.00;99.90;;;;;;5094301;28;20253;-80
2022/11/07 05:52:31;;;;;;;6.27;4.30;;;7.00;99.90;;;;;;5094380;28;20253;-82
2022/11/07 05:54:57;;;;;;;5.67;4.60;;;7.10;99.90;;;;;;5094146;28;20656;-81
2022/11/07 05:57:24;;;;;;;4.87;4.20;;;7.10;99.90;;;;;;5094039;28;20536;-81
2022/11/07 05:59:51;;;;;;;5.50;4.60;;;7.10;99.90;;;;;;5094309;28;20279;-81
2022/11/07 06:02:19;;;;;;;7.33;4.60;;;7.10;99.90;;;;;;5093958;28;20196;-81
2022/11/07 06:04:45;;;;;;;8.10;4.13;;;7.10;99.90;;;;;;5093995;28;20279;-81
2022/11/07 06:07:12;;;;;;;5.47;4.80;;;7.10;99.90;;;;;;5095080;28;20235;-82
2022/11/07 06:09:39;;;;;;;7.07;4.80;;;7.20;99.90;;;;;;5094362;28;20200;-82
2022/11/07 06:12:06;;;;;;;5.93;5.13;;;7.20;99.90;;;;;;5093760;28;20196;-82
2022/11/07 06:14:33;;;;;;;7.33;5.73;;;7.20;99.90;;;;;;5094033;28;20658;-79
2022/11/07 06:17:00;;;;;;;6.10;5.47;;;7.30;99.90;;;;;;5093678;28;20529;-83
2022/11/07 06:19:27;;;;;;;9.77;5.80;;;7.20;99.90;;;;;;5093872;28;20560;-83
2022/11/07 06:21:54;;;;;;;8.60;6.67;;;7.20;99.90;;;;;;5093557;28;20197;-83
2022/11/07 06:24:21;;;;;;;12.13;7.57;;;7.20;99.90;;;;;;5093608;28;20196;-82
2022/11/07 06:26:47;;;;;;;13.90;9.30;;;7.10;99.90;;;;;;5093768;28;20197;-83
2022/11/07 06:29:14;;;;;;;19.53;10.90;;;7.00;99.90;;;;;;5092956;28;20740;-83
2022/11/07 06:31:41;;;;;;;17.47;11.80;;;6.90;99.90;;;;;;5093762;28;20198;-81
2022/11/07 06:34:07;;;;;;;17.60;10.77;;;6.90;99.90;;;;;;5093755;28;20200;-78
2022/11/07 06:36:35;;;;;;;13.53;9.87;;;6.80;99.90;;;;;;5093398;28;20196;-80
2022/11/07 06:39:02;;;;;;;11.77;10.20;;;6.80;99.90;;;;;;5093152;28;20216;-82
2022/11/07 06:41:28;;;;;;;14.20;10.63;;;6.80;99.90;;;;;;5093528;28;20196;-81
2022/11/07 06:43:55;;;;;;;16.70;12.47;;;6.90;99.90;;;;;;5093297;28;20204;-80
2022/11/07 06:46:22;;;;;;;18.57;13.03;;;6.90;99.90;;;;;;5093584;28;20196;-86
2022/11/07 06:48:49;;;;;;;14.87;11.30;;;6.90;99.90;;;;;;5094199;28;20203;-79
2022/11/07 06:51:16;;;;;;;16.13;11.07;;;7.00;99.90;;;;;;5094753;28;20200;-84
2022/11/07 06:53:44;;;;;;;12.57;9.77;;;7.10;99.90;;;;;;5092795;28;20201;-82
2022/11/07 06:56:14;;;;;;;13.13;10.33;;;7.20;99.90;;;;;;5093185;28;20200;-81
2022/11/07 06:58:41;;;;;;;13.30;10.30;;;7.20;99.90;;;;;;5092974;28;20831;-81
2022/11/07 07:01:12;;;;;;;11.83;9.03;;;7.20;99.90;;;;;;5093025;28;20234;-81
2022/11/07 07:03:38;;;;;;;9.67;7.63;;;7.30;99.90;;;;;;5097351;28;20196;-81
2022/11/07 07:06:07;;;;;;;10.60;7.90;;;7.30;99.90;;;;;;5105119;28;20197;-81
2022/11/07 07:08:34;;;;;;;9.10;7.83;;;7.40;99.90;;;;;;5094805;28;20621;-82
2022/11/07 07:11:05;;;;;;;9.20;7.50;;;7.50;99.90;;;;;;5093222;28;20200;-82
2022/11/07 07:13:32;;;;;;;7.73;6.73;;;7.60;99.90;;;;;;5093417;28;20559;-82
2022/11/07 07:15:59;;;;;;;9.03;7.17;;;7.70;99.90;;;;;;5093048;28;20226;-81
2022/11/07 07:18:26;;;;;;;9.93;7.80;;;7.80;99.90;;;;;;5093269;28;20206;-82
2022/11/07 07:21:01;;;;;;;8.67;7.70;;;7.80;99.90;;;;;;5093038;28;20336;-82
2022/11/07 07:23:28;;;;;;;8.67;7.43;;;7.90;99.90;;;;;;5092886;28;20646;-83
2022/11/07 07:25:55;;;;;;;8.70;7.07;;;7.90;99.90;;;;;;5093174;28;20210;-81
2022/11/07 07:28:23;;;;;;;10.10;6.77;;;8.00;99.90;;;;;;5092912;28;20192;-82
2022/11/07 07:30:49;;;;;;;7.80;6.67;;;8.20;99.90;;;;;;5092729;28;20594;-77
2022/11/07 07:33:16;;;;;;;7.43;6.00;;;8.30;99.90;;;;;;5092705;28;20257;-81
2022/11/07 07:35:42;;;;;;;8.63;6.37;;;8.40;99.90;;;;;;5092960;28;20196;-80
2022/11/07 07:38:11;;;;;;;8.37;6.40;;;8.50;99.90;;;;;;5092901;28;20200;-80
2022/11/07 07:40:37;;;;;;;7.47;6.20;;;8.60;99.90;;;;;;5075203;28;20266;-84
2022/11/07 07:43:04;;;;;;;6.60;5.60;;;8.70;99.90;;;;;;5076770;28;20294;-82
2022/11/07 07:45:32;;;;;;;7.20;5.63;;;8.80;99.90;;;;;;5076448;28;20197;-83
2022/11/07 07:48:02;;;;;;;7.90;5.80;;;9.00;99.90;;;;;;5076905;28;20243;-79
2022/11/07 07:50:29;;;;;;;7.97;6.50;;;9.00;99.90;;;;;;5076703;28;20304;-85
2022/11/07 07:52:56;;;;;;;6.67;5.90;;;9.20;99.90;;;;;;5076921;28;20197;-80
2022/11/07 07:55:23;;;;;;;7.57;5.67;;;9.30;99.90;;;;;;5076471;28;20279;-81
2022/11/07 07:57:49;;;;;;;7.27;5.57;;;9.40;99.90;;;;;;5076902;28;20717;-83
2022/11/07 08:00:17;;;;;;;7.87;6.17;;;9.50;99.90;;;;;;5086261;28;20707;-81
2022/11/07 08:02:45;;;;;;;9.33;6.00;;;9.50;99.90;;;;;;5091707;28;20193;-84
2022/11/07 08:05:12;;;;;;;7.20;5.40;;;9.60;99.90;;;;;;5077479;28;20282;-82
2022/11/07 08:07:45;;;;;;;6.57;5.30;;;9.60;99.90;;;;;;5076281;28;20201;-80
2022/11/07 08:10:12;;;;;;;8.13;5.70;;;9.80;99.90;;;;;;5076138;28;20200;-78
2022/11/07 08:12:43;;;;;;;5.80;5.23;;;9.90;99.90;;;;;;5089535;28;20631;-81
2022/11/07 08:15:11;;;;;;;8.33;5.07;;;10.00;99.90;;;;;;5116441;28;20245;-77
2022/11/07 08:17:37;;;;;;;6.20;5.33;;;10.20;99.90;;;;;;5096169;28;20253;-79
2022/11/07 08:20:08;;;;;;;7.07;5.57;;;10.20;99.90;;;;;;5096126;28;20568;-80
2022/11/07 08:22:35;;;;;;;8.17;5.57;;;10.40;99.90;;;;;;5095777;28;20246;-80
2022/11/07 08:25:01;;;;;;;7.47;4.90;;;10.70;99.90;;;;;;5096335;28;20200;-80
2022/11/07 08:27:28;;;;;;;5.43;4.93;;;11.00;99.90;;;;;;5095858;28;20200;-80
2022/11/07 08:29:55;;;;;;;7.43;5.27;;;11.20;99.90;;;;;;5096074;28;20200;-80
2022/11/07 08:32:22;;;;;;;6.33;4.10;;;11.30;99.90;;;;;;5093093;28;20211;-80
2022/11/07 08:34:48;;;;;;;6.87;4.67;;;11.70;99.90;;;;;;5095643;28;20594;-79
2022/11/07 08:37:16;;;;;;;4.77;4.20;;;11.90;99.90;;;;;;5095583;28;20675;-81
2022/11/07 08:39:43;;;;;;;5.53;4.23;;;11.90;99.90;;;;;;5095514;28;20631;-80
2022/11/07 08:42:10;;;;;;;4.70;4.23;;;11.90;99.90;;;;;;5095531;28;20594;-80
2022/11/07 08:44:36;;;;;;;6.83;4.20;;;11.70;99.90;;;;;;5095755;28;20609;-86
2022/11/07 08:47:03;;;;;;;4.90;4.00;;;11.80;99.90;;;;;;5096309;28;20200;-72
2022/11/07 08:49:30;;;;;;;6.33;4.13;;;12.10;99.90;;;;;;5095653;28;20234;-80
2022/11/07 08:51:57;;;;;;;6.13;4.40;;;12.40;99.90;;;;;;5094721;28;20200;-81
2022/11/07 08:54:25;;;;;;;4.73;3.40;;;12.50;99.90;;;;;;5095400;28;20312;-79
2022/11/07 08:56:52;;;;;;;5.67;3.63;;;12.50;99.90;;;;;;5095777;28;20196;-81
2022/11/07 08:59:19;;;;;;;4.93;3.37;;;12.60;99.90;;;;;;5095428;28;20216;-81
2022/11/07 09:01:45;;;;;;;3.77;3.10;;;12.60;99.90;;;;;;5090479;28;20197;-81
2022/11/07 09:04:12;;;;;;;5.03;3.20;;;12.80;99.90;;;;;;5074811;28;20225;-81
2022/11/07 09:06:39;;;;;;;7.90;3.57;;;12.80;99.90;;;;;;5074678;28;20193;-82
2022/11/07 09:09:05;;;;;;;3.63;3.10;;;12.60;99.90;;;;;;5074274;28;20235;-81
2022/11/07 09:11:33;;;;;;;5.23;3.27;;;13.00;99.90;;;;;;5074775;28;20251;-82
2022/11/07 09:14:00;;;;;;;4.65;3.20;;;13.10;99.90;;;;;;5074734;28;20217;-81
2022/11/07 09:16:27;;;;;;;3.63;3.00;;;12.90;99.90;;;;;;5074465;28;20197;-81
2022/11/07 09:18:53;;;;;;;3.40;3.10;;;13.10;99.90;;;;;;5074522;28;20677;-80
2022/11/07 09:21:20;;;;;;;4.67;2.97;;;13.20;99.90;;;;;;5074666;28;20286;-80
2022/11/07 09:23:47;;;;;;;4.60;2.97;;;13.20;99.90;;;;;;5074313;28;20697;-81
2022/11/07 09:26:13;;;;;;;5.90;3.22;;;13.20;99.90;;;;;;5074371;28;20603;-78
2022/11/07 09:28:41;;;;;;;4.38;3.15;;;13.20;99.90;;;;;;5074223;28;20726;-81
2022/11/07 09:31:08;;;;;;;5.00;3.20;;;13.50;99.90;;;;;;5074194;28;20726;-80
2022/11/07 09:33:35;;;;;;;3.10;2.60;;;14.10;99.90;;;;;;5074490;28;20197;-81
2022/11/07 09:36:02;;;;;;;5.15;3.03;;;13.90;99.90;;;;;;5074141;28;20251;-80
2022/11/07 09:38:29;;;;;;;6.20;2.92;;;14.10;99.90;;;;;;5074060;28;20278;-81
2022/11/07 09:41:03;;;;;;;3.33;2.60;;;14.40;99.90;;;;;;5074272;28;20297;-81
2022/11/07 09:43:57;;;;;;;6.95;2.40;;;14.90;99.90;;;;;;5074310;28;20274;-80
2022/11/07 09:46:34;;;;;;;3.33;2.40;;;14.70;99.90;;;;;;5074209;28;20197;-81
2022/11/07 09:49:08;;;;;;;2.85;2.30;;;14.60;99.90;;;;;;5075211;28;20201;-80
2022/11/07 09:51:38;;;;;;;6.40;2.53;;;14.00;99.90;;;;;;5073973;28;20644;-79
2022/11/07 09:54:07;;;;;;;4.75;2.67;;;14.10;99.90;;;;;;5074121;28;20228;-79
2022/11/07 09:56:34;;;;;;;2.72;2.30;;;14.00;99.90;;;;;;5074045;28;20314;-80
2022/11/07 09:59:07;;;;;;;3.93;2.47;;;14.00;99.90;;;;;;5073864;28;20193;-79
2022/11/07 10:01:34;;;;;;;6.45;2.53;;;14.00;99.90;;;;;;5073770;28;20254;-80
2022/11/07 10:04:00;;;;;;;2.92;2.20;;;14.20;99.90;;;;;;5073031;28;20233;-81
2022/11/07 10:06:29;;;;;;;6.45;2.67;;;14.20;99.90;;;;;;5073910;28;20197;-80
2022/11/07 10:09:11;;;;;;;3.63;2.22;;;14.70;99.90;;;;;;5073793;28;20205;-80
2022/11/07 10:11:43;;;;;;;2.60;2.20;;;15.10;99.90;;;;;;5073506;28;20766;-80
2022/11/07 10:14:20;;;;;;;2.92;2.15;;;15.90;99.90;;;;;;5073773;28;20345;-80
2022/11/07 10:17:00;;;;;;;4.07;2.20;;;16.40;99.90;;;;;;5073881;28;20250;-80
2022/11/07 10:19:39;;;;;;;3.88;2.45;;;16.60;99.90;;;;;;5073516;28;20254;-80
2022/11/07 10:22:16;;;;;;;6.93;2.15;;;17.80;99.90;;;;;;5073167;28;20205;-81
2022/11/07 10:24:58;;;;;;;3.65;2.22;;;18.40;99.90;;;;;;5073359;28;20197;-79
2022/11/07 10:27:27;;;;;;;3.63;2.30;;;18.30;99.90;;;;;;5096608;28;20195;-80
2022/11/07 10:29:55;;;;;;;3.45;2.10;;;18.40;99.90;;;;;;5113704;28;20203;-80
2022/11/07 10:32:26;;;;;;;7.13;2.00;;;19.30;99.90;;;;;;5073127;28;20193;-79
2022/11/07 10:35:02;;;;;;;4.88;1.70;;;18.60;99.90;;;;;;5073029;28;20255;-79
2022/11/07 10:37:30;;;;;;;3.25;1.60;;;17.20;99.90;;;;;;5073304;28;20201;-79
2022/11/07 10:39:56;;;;;;;2.80;1.77;;;17.90;99.90;;;;;;5073097;28;20221;-79
2022/11/07 10:42:29;;;;;;;4.80;1.63;;;17.40;99.90;;;;;;5092528;28;20325;-79
2022/11/07 10:44:59;;;;;;;3.80;1.88;;;18.40;99.90;;;;;;5092656;28;20192;-78
2022/11/07 10:47:26;;;;;;;3.80;1.70;;;16.60;99.90;;;;;;5092917;28;20196;-79
2022/11/07 10:49:56;;;;;;;3.80;1.60;;;18.20;99.90;;;;;;5092865;28;20250;-79
2022/11/07 10:52:23;;;;;;;4.18;1.65;;;17.60;99.90;;;;;;5093073;28;20201;-80
2022/11/07 10:54:50;;;;;;;2.95;1.85;;;18.20;99.90;;;;;;5095088;28;20202;-80
2022/11/07 10:57:18;;;;;;;4.97;2.00;;;17.00;99.90;;;;;;5093165;28;20200;-80
2022/11/07 10:59:55;;;;;;;4.68;1.80;;;18.00;99.90;;;;;;5093112;28;20268;-80
2022/11/07 11:02:25;;;;;;;3.63;1.63;;;16.00;99.90;;;;;;5093386;28;20200;-80
2022/11/07 11:04:54;;;;;;;4.20;2.00;;;15.20;99.90;;;;;;5074210;28;20587;-79
2022/11/07 11:07:24;;;;;;;5.27;2.07;;;14.50;99.90;;;;;;5073064;28;20254;-79
2022/11/07 11:09:52;;;;;;;3.17;1.50;;;14.30;99.90;;;;;;5073017;28;20246;-80
2022/11/07 11:12:23;;;;;;;2.53;1.23;;;14.00;99.90;;;;;;5073065;28;20193;-80
2022/11/07 11:14:50;;;;;;;3.13;1.63;;;14.00;99.90;;;;;;5072396;28;20342;-80
2022/11/07 11:17:25;;;;;;;2.43;1.60;;;14.10;99.90;;;;;;5072640;28;20275;-79
2022/11/07 11:19:53;;;;;;;7.23;2.20;;;14.30;99.90;;;;;;5072442;28;20640;-79
2022/11/07 11:22:24;;;;;;;6.13;1.90;;;14.50;99.90;;;;;;5072503;28;20219;-82
2022/11/07 11:25:01;;;;;;;7.27;2.00;;;14.60;99.90;;;;;;5072580;28;20255;-79
2022/11/07 11:27:31;;;;;;;5.27;2.00;;;15.80;99.90;;;;;;5072738;28;20200;-79
2022/11/07 11:30:04;;;;;;;6.23;2.13;;;15.60;99.90;;;;;;5072650;28;20212;-79
2022/11/07 11:32:38;;;;;;;6.93;2.00;;;15.70;99.90;;;;;;5072676;28;20201;-79
2022/11/07 11:35:17;;;;;;;5.00;1.92;;;16.80;99.90;;;;;;5072527;28;20204;-76
2022/11/07 11:37:50;;;;;;;3.75;1.63;;;17.60;99.90;;;;;;5072767;28;20197;-78
2022/11/07 11:40:21;;;;;;;5.00;1.63;;;17.60;99.90;;;;;;5071239;28;20217;-78
2022/11/07 11:42:52;;;;;;;2.55;1.70;;;16.50;99.90;;;;;;5070653;28;20197;-78
2022/11/07 11:45:27;;;;;;;4.30;1.80;;;16.80;99.90;;;;;;5070485;28;20201;-78
2022/11/07 11:48:02;;;;;;;2.88;1.60;;;19.10;99.90;;;;;;5070927;28;20192;-77
2022/11/07 11:50:36;;;;;;;4.72;1.95;;;17.40;99.90;;;;;;5071808;28;20556;-78
2022/11/07 11:53:03;;;;;;;3.35;1.50;;;16.30;99.90;;;;;;5071882;28;20200;-78
2022/11/07 11:55:43;;;;;;;3.55;1.90;;;15.80;99.90;;;;;;5071784;28;20537;-78
2022/11/07 11:58:21;;;;;;;3.13;1.60;;;15.40;99.90;;;;;;5072335;28;20262;-77
2022/11/07 12:00:57;;;;;;;3.57;1.97;;;15.00;99.90;;;;;;5072103;28;20228;-77
2022/11/07 12:03:39;;;;;;;5.17;1.90;;;14.80;99.90;;;;;;5072212;28;20223;-77
2022/11/07 12:06:13;;;;;;;5.07;2.00;;;14.40;99.90;;;;;;5072176;28;20201;-77
2022/11/07 12:08:52;;;;;;;5.23;2.00;;;14.40;99.90;;;;;;5072370;28;20196;-79
2022/11/07 12:11:27;;;;;;;3.90;2.23;;;14.30;99.90;;;;;;5072115;28;20602;-78
2022/11/07 12:14:01;;;;;;;6.80;2.50;;;14.30;99.90;;;;;;5072103;28;20201;-77
2022/11/07 12:16:34;;;;;;;3.27;1.70;;;14.10;99.90;;;;;;5071995;28;20200;-79
2022/11/07 12:19:14;;;;;;;4.70;2.03;;;14.00;99.90;;;;;;5071986;28;20334;-78
2022/11/07 12:21:50;;;;;;;4.20;1.70;;;13.90;99.90;;;;;;5071964;28;20266;-79
2022/11/07 12:24:27;;;;;;;7.07;2.47;;;13.90;99.90;;;;;;5072255;28;20204;-77
2022/11/07 12:27:01;;;;;;;7.70;4.00;;;14.00;99.90;;;;;;5072124;28;20204;-76
2022/11/07 12:29:35;;;;;;;20.40;10.90;;;14.00;99.90;;;;;;5075708;28;20262;-79
2022/11/07 12:32:12;;;;;;;6.23;3.83;;;14.10;99.90;;;;;;5075631;28;20283;-79
2022/11/07 12:34:59;;;;;;;5.07;3.03;;;14.00;99.90;;;;;;5075637;28;20242;-79
2022/11/07 12:37:49;;;;;;;7.27;3.17;;;13.80;99.90;;;;;;5075359;28;20193;-79
2022/11/07 12:40:27;;;;;;;8.70;3.70;;;13.80;99.90;;;;;;5075372;28;20652;-79
2022/11/07 12:43:05;;;;;;;2.93;1.57;;;13.80;99.90;;;;;;5076009;28;20291;-79
2022/11/07 12:45:45;;;;;;;16.97;7.30;;;13.70;99.90;;;;;;5075420;28;20200;-79
2022/11/07 12:48:56;;;;;;;14.73;5.53;;;13.70;99.90;;;;;;5075502;28;20246;-79
2022/11/07 12:51:34;;;;;;;3.50;2.17;;;13.80;99.90;;;;;;5044703;28;20330;-79
2022/11/07 12:54:14;;;;;;;6.87;2.13;;;13.90;99.90;;;;;;5075152;28;20196;-79
2022/11/07 12:56:42;;;;;;;7.63;3.10;;;13.70;99.90;;;;;;5072490;28;20211;-76
2022/11/07 12:59:13;;;;;;;4.57;2.20;;;13.70;99.90;;;;;;5072853;28;20197;-78
2022/11/07 13:01:47;;;;;;;7.90;2.73;;;13.70;99.90;;;;;;5072900;28;20225;-78
2022/11/07 13:04:18;;;;;;;5.53;2.27;;;13.70;99.90;;;;;;5072410;28;20274;-79
2022/11/07 13:06:53;;;;;;;6.87;3.20;;;13.70;99.90;;;;;;5072225;28;20271;-79
2022/11/07 13:09:27;;;;;;;5.33;1.80;;;13.80;99.90;;;;;;5074693;28;20196;-77
2022/11/07 13:11:59;;;;;;;8.73;3.50;;;13.80;99.90;;;;;;5077833;28;20201;-79
2022/11/07 13:14:30;;;;;;;8.83;3.70;;;13.80;99.90;;;;;;5080348;28;20679;-78